Hollywood, South Carolina
Current Conditions -  °F | °C
As of 8:55 PM on Monday 24 Nov 2014 (Local Time) from KJZI Reporting Station
Haze Haze  
Wind Chill: 64°   Ceiling: 6000
Heat Index: 64°   Visibility: 4mi
Dew Point: 64°   Wind: 0mph
Humidity: 100%   Direction: NA
Pressure: 29.97"   Gusts: NA
Location:  32.73°N, 80.24°W
Report Text: KJZI 250155Z AUTO 00000KT 4SM BR FEW029 BKN060 OVC065 18/18 A2997 RMK A02 P000
Loading
Personal Weather Stations






























Interactive Weather Map New forecast layout! Learn more

10-Day Weather Forecast

Advertisements
Track Severe Weather on mobile